Listerhav — ZDKC7 — position and weather

sailwx.info

Track history (hours):
 
Tides and Currents Weather Stations Pressure Air Temp Water Temp Dewpoint Dewpoint Depression Visibility Wind Speed Wind Dir Waves Ship Positions

Listerhav

Last reported at 2016-May-24 22:31 UTC. Time now 2016-May-24 23:29 UTC.
Position N 59°50' E 025°29'.

Length 88 m; draft 4.2 m.

Type: Ship. MMSI: 236591000.

Date/timePositionNaut miles runAvg speedWind from/ knotsBaromVisibWave heightAir tempDewpointWater temp
2016-May-24 22:31N 59°50' E 025°29'3610.3
2016-May-24 19:03N 59°38' E 024°22'510.5
2016-May-24 18:33N 59°36' E 024°13'1010.5
2016-May-24 17:33N 59°31' E 023°54'1010.1
2016-May-24 16:31N 59°26' E 023°36'11 9.9
2016-May-24 15:26N 59°22' E 023°17'28410.0
2016-May-23 11:04N 55°10' E 019°16'510.5
2016-May-23 10:33N 55°05' E 019°13'1110.7
2016-May-23 09:33N 54°55' E 019°07'1110.8
2016-May-23 08:33N 54°45' E 019°01'1110.8
2016-May-23 07:33N 54°35' E 018°53'9 9.1
2016-May-23 06:33N 54°32' E 018°38'3 2.8
2016-May-23 05:32N 54°32' E 018°33'0 0.0
2016-May-23 04:32N 54°32' E 018°33'0 0.0
2016-May-23 03:32N 54°32' E 018°33'0 0.0
2016-May-23 02:32N 54°32' E 018°33'0 0.0
2016-May-23 01:32N 54°32' E 018°33'0 0.0
2016-May-23 00:32N 54°32' E 018°33'0 0.0
2016-May-22 23:32N 54°32' E 018°33'0 0.0
2016-May-22 22:32N 54°32' E 018°33'0 0.0
2016-May-22 21:32N 54°32' E 018°33'0 0.0
2016-May-22 20:32N 54°32' E 018°33'0 0.0
2016-May-22 19:32N 54°32' E 018°33'0 0.0
2016-May-22 18:32N 54°32' E 018°33'0 0.0
2016-May-22 17:32N 54°32' E 018°33'0 0.0
2016-May-22 16:32N 54°32' E 018°33'0 0.0
2016-May-22 15:32N 54°32' E 018°33'0 0.0
2016-May-22 14:32N 54°32' E 018°33'0 0.0
2016-May-22 13:32N 54°32' E 018°33'0 0.0
2016-May-22 12:32N 54°32' E 018°33'0 0.0
2016-May-22 11:32N 54°32' E 018°33'0 0.0
2016-May-22 10:32N 54°32' E 018°33'0 0.0
2016-May-22 09:32N 54°32' E 018°33'0 0.0
2016-May-22 08:32N 54°32' E 018°33'0 0.0
2016-May-22 07:31N 54°32' E 018°33'0 0.0
2016-May-22 06:31N 54°32' E 018°33'0 0.0
2016-May-22 05:31N 54°32' E 018°33'0 0.0
2016-May-22 04:31N 54°32' E 018°33'0 0.0
2016-May-22 03:31N 54°32' E 018°33'0 0.0
2016-May-22 02:31N 54°32' E 018°33'0 0.0
2016-May-22 01:31N 54°32' E 018°33'0 0.0
2016-May-22 00:31N 54°32' E 018°33'0 0.0
2016-May-21 23:31N 54°32' E 018°33'0 0.0
2016-May-21 22:28N 54°32' E 018°33'0 0.0
2016-May-21 21:31N 54°32' E 018°33'0 0.0
2016-May-21 20:31N 54°32' E 018°33'0 0.0
2016-May-21 19:28N 54°32' E 018°33'0 0.0
2016-May-21 18:31N 54°32' E 018°33'0 0.0
2016-May-21 17:31N 54°32' E 018°33'0 0.0
2016-May-21 16:31N 54°32' E 018°33'0 0.0
2016-May-21 15:31N 54°32' E 018°33'0 0.0
2016-May-21 14:31N 54°32' E 018°33'0 0.0
2016-May-21 13:31N 54°32' E 018°33'0 0.0
2016-May-21 12:31N 54°32' E 018°33'0 0.0
2016-May-21 11:31N 54°32' E 018°33'0 0.0
2016-May-21 10:31N 54°32' E 018°33'0 0.0
2016-May-21 09:31N 54°32' E 018°33'1 1.0
2016-May-21 08:33N 54°32' E 018°34'10 9.6
2016-May-21 07:33N 54°34' E 018°51'1010.0
2016-May-21 06:33N 54°44' E 018°54'1110.8
2016-May-21 05:33N 54°52' E 018°42'1110.9
2016-May-21 04:33N 54°56' E 018°24'9211.1
2016-May-20 20:13N 55°13' E 015°46'811.1
2016-May-20 19:32N 55°14' E 015°33'1111.1
2016-May-20 18:33N 55°16' E 015°14'1111.4
2016-May-20 17:33N 55°20' E 014°55'1010.1
2016-May-20 16:33N 55°21' E 014°38'1110.7
2016-May-20 15:33N 55°13' E 014°25'1010.5
2016-May-20 14:33N 55°11' E 014°07'1110.6
2016-May-20 13:33N 55°11' E 013°49'1110.6
2016-May-20 12:33N 55°12' E 013°30'1111.1
2016-May-20 11:33N 55°13' E 013°11'1111.1
2016-May-20 10:33N 55°15' E 012°52'10 9.6
2016-May-20 09:33N 55°20' E 012°38'10 9.9
2016-May-20 08:33N 55°30' E 012°41'9 9.4
2016-May-20 07:33N 55°40' E 012°41'10 9.7
2016-May-20 06:33N 55°49' E 012°40'10 9.8
2016-May-20 05:33N 55°59' E 012°38'8 8.3
2016-May-20 04:33N 56°07' E 012°32'9 9.4
2016-May-20 03:33N 56°12' E 012°18'1010.5
2016-May-20 02:33N 56°18' E 012°03'1110.8
2016-May-20 01:33N 56°28' E 011°59'1110.6
2016-May-20 00:33N 56°39' E 011°54'1010.4
2016-May-19 23:33N 56°49' E 011°49'1010.3
2016-May-19 22:33N 56°58' E 011°43'1010.3
2016-May-19 21:33N 57°08' E 011°37'1110.9
2016-May-19 20:33N 57°18' E 011°30'1111.1
2016-May-19 19:33N 57°28' E 011°20'1111.1
2016-May-19 18:33N 57°36' E 011°06'1111.0
2016-May-19 17:33N 57°44' E 010°51'1110.6
2016-May-19 16:33N 57°46' E 010°32'1111.3
2016-May-19 15:33N 57°42' E 010°12'158 9.6
2016-May-18 23:06N 55°46' E 006°57'8 8.3
2016-May-18 22:06N 55°39' E 006°49'17 8.3
2016-May-18 20:05N 55°25' E 006°33'87 8.3
2016-May-18 09:33N 54°10' E 005°13'8 8.3
2016-May-18 08:33N 54°03' E 005°07'9 8.4
2016-May-18 07:30N 53°55' E 005°02'9 8.7
2016-May-18 06:31N 53°47' E 004°57'7410.5
2016-May-17 23:29N 52°39' E 004°07'8 8.8
2016-May-17 22:33N 52°32' E 004°12'9 9.2
2016-May-17 21:33N 52°29' E 004°27'6 6.0
2016-May-17 20:33N 52°28' E 004°37'9 8.7
2016-May-17 19:33N 52°25' E 004°50'2 1.6
2016-May-17 18:33N 52°24' E 004°52'0 0.0
2016-May-17 17:33N 52°24' E 004°52'0 0.0
2016-May-17 16:33N 52°24' E 004°52'0 0.0
2016-May-17 15:33N 52°24' E 004°52'0 0.0
2016-May-17 14:33N 52°24' E 004°52'0 0.0
2016-May-17 13:33N 52°24' E 004°52'0 0.0
2016-May-17 12:33N 52°24' E 004°52'0 0.0
2016-May-17 11:33N 52°24' E 004°52'0 0.0
2016-May-17 10:33N 52°24' E 004°52'0 0.3
2016-May-17 09:33N 52°24' E 004°52'0 0.0
2016-May-17 08:33N 52°24' E 004°52'0 0.0
2016-May-17 07:33N 52°24' E 004°52'0 0.0
2016-May-17 06:33N 52°24' E 004°52'0 0.0
2016-May-17 05:33N 52°24' E 004°52'0 0.0
2016-May-17 04:33N 52°24' E 004°52'0 0.0
2016-May-17 03:33N 52°24' E 004°52'0 0.0
2016-May-17 02:33N 52°24' E 004°52'0 0.0
2016-May-17 01:33N 52°24' E 004°52'0 0.0
2016-May-17 00:33N 52°24' E 004°52'0 0.0
2016-May-16 23:33N 52°24' E 004°52'0 0.0
2016-May-16 22:33N 52°24' E 004°52'0 0.0
2016-May-16 21:33N 52°24' E 004°52'0 0.0
2016-May-16 20:33N 52°24' E 004°52'0 0.0
2016-May-16 19:33N 52°24' E 004°52'0 0.0
2016-May-16 18:33N 52°24' E 004°52'0 0.0
2016-May-16 17:33N 52°24' E 004°52'0 0.0
2016-May-16 16:33N 52°24' E 004°52'0 0.0
2016-May-16 15:33N 52°24' E 004°52'0 0.0
2016-May-16 14:33N 52°24' E 004°52'0 0.0
2016-May-16 13:33N 52°24' E 004°52'1 0.5
2016-May-16 12:34N 52°25' E 004°52'1010.0
2016-May-16 11:34N 52°28' E 004°37'5 5.2
2016-May-16 10:34N 52°28' E 004°28'1010.5
2016-May-16 09:33N 52°29' E 004°11'2 1.9
2016-May-16 08:30N 52°27' E 004°09'0 0.0
2016-May-16 07:24N 52°27' E 004°09'0 0.0
2016-May-16 06:33N 52°27' E 004°09'0 0.0
2016-May-16 03:30N 52°27' E 004°09'0 0.0
2016-May-16 02:21N 52°27' E 004°09'0 0.0
2016-May-16 01:24N 52°27' E 004°09'0 0.1
2016-May-16 00:30N 52°27' E 004°09'0 0.0
2016-May-15 23:33N 52°27' E 004°09'0 0.0
2016-May-15 22:33N 52°27' E 004°09'0 0.0
2016-May-15 21:33N 52°27' E 004°09'0 0.0
2016-May-15 20:30N 52°27' E 004°09'0 0.0
2016-May-15 19:33N 52°27' E 004°09'0 0.0
2016-May-15 18:33N 52°27' E 004°09'0 0.0
2016-May-15 17:33N 52°27' E 004°09'0 0.0
2016-May-15 16:33N 52°27' E 004°09'0 0.0
2016-May-15 15:33N 52°27' E 004°09'0 0.0
2016-May-15 14:33N 52°27' E 004°09'0 0.0
2016-May-15 13:33N 52°27' E 004°09'0 0.0
2016-May-15 12:30N 52°27' E 004°09'0 0.0
2016-May-15 11:30N 52°27' E 004°09'0 0.0
2016-May-15 10:33N 52°27' E 004°09'0 0.0
2016-May-15 09:30N 52°27' E 004°09'0 0.0
2016-May-15 08:30N 52°27' E 004°09'0 0.0
2016-May-15 07:30N 52°27' E 004°09'0 0.0
2016-May-15 06:33N 52°27' E 004°09'0 0.0
2016-May-15 05:24N 52°27' E 004°09'0 0.0
2016-May-15 04:30N 52°27' E 004°09'0 0.0
2016-May-15 03:21N 52°27' E 004°08'0 0.0
2016-May-15 02:30N 52°27' E 004°09'0 0.0
2016-May-15 01:33N 52°27' E 004°09'0 0.0
2016-May-15 00:24N 52°27' E 004°09'0 0.0
2016-May-14 23:30N 52°27' E 004°09'  
Track history (hours):
 
Tides and Currents Weather Stations Pressure Air Temp Water Temp Dewpoint Dewpoint Depression Visibility Wind Speed Wind Dir Waves Ship Positions

Listerhav

Last reported at 2016-May-24 22:31 UTC. Time now 2016-May-24 23:29 UTC.
Position N 59°50' E 025°29'.

Length 88 m; draft 4.2 m.

Type: Ship. MMSI: 236591000.

Date/timePositionNaut miles runAvg speedWind from/ knotsBaromVisibWave heightAir tempDewpointWater temp
2016-May-24 22:31N 59°50' E 025°29'3610.3
2016-May-24 19:03N 59°38' E 024°22'510.5
2016-May-24 18:33N 59°36' E 024°13'1010.5
2016-May-24 17:33N 59°31' E 023°54'1010.1
2016-May-24 16:31N 59°26' E 023°36'11 9.9
2016-May-24 15:26N 59°22' E 023°17'28410.0
2016-May-23 11:04N 55°10' E 019°16'510.5
2016-May-23 10:33N 55°05' E 019°13'1110.7
2016-May-23 09:33N 54°55' E 019°07'1110.8
2016-May-23 08:33N 54°45' E 019°01'1110.8
2016-May-23 07:33N 54°35' E 018°53'9 9.1
2016-May-23 06:33N 54°32' E 018°38'3 2.8
2016-May-23 05:32N 54°32' E 018°33'0 0.0
2016-May-23 04:32N 54°32' E 018°33'0 0.0
2016-May-23 03:32N 54°32' E 018°33'0 0.0
2016-May-23 02:32N 54°32' E 018°33'0 0.0
2016-May-23 01:32N 54°32' E 018°33'0 0.0
2016-May-23 00:32N 54°32' E 018°33'0 0.0
2016-May-22 23:32N 54°32' E 018°33'0 0.0
2016-May-22 22:32N 54°32' E 018°33'0 0.0
2016-May-22 21:32N 54°32' E 018°33'0 0.0
2016-May-22 20:32N 54°32' E 018°33'0 0.0
2016-May-22 19:32N 54°32' E 018°33'0 0.0
2016-May-22 18:32N 54°32' E 018°33'0 0.0
2016-May-22 17:32N 54°32' E 018°33'0 0.0
2016-May-22 16:32N 54°32' E 018°33'0 0.0
2016-May-22 15:32N 54°32' E 018°33'0 0.0
2016-May-22 14:32N 54°32' E 018°33'0 0.0
2016-May-22 13:32N 54°32' E 018°33'0 0.0
2016-May-22 12:32N 54°32' E 018°33'0 0.0
2016-May-22 11:32N 54°32' E 018°33'0 0.0
2016-May-22 10:32N 54°32' E 018°33'0 0.0
2016-May-22 09:32N 54°32' E 018°33'0 0.0
2016-May-22 08:32N 54°32' E 018°33'0 0.0
2016-May-22 07:31N 54°32' E 018°33'0 0.0
2016-May-22 06:31N 54°32' E 018°33'0 0.0
2016-May-22 05:31N 54°32' E 018°33'0 0.0
2016-May-22 04:31N 54°32' E 018°33'0 0.0
2016-May-22 03:31N 54°32' E 018°33'0 0.0
2016-May-22 02:31N 54°32' E 018°33'0 0.0
2016-May-22 01:31N 54°32' E 018°33'0 0.0
2016-May-22 00:31N 54°32' E 018°33'0 0.0
2016-May-21 23:31N 54°32' E 018°33'0 0.0
2016-May-21 22:28N 54°32' E 018°33'0 0.0
2016-May-21 21:31N 54°32' E 018°33'0 0.0
2016-May-21 20:31N 54°32' E 018°33'0 0.0
2016-May-21 19:28N 54°32' E 018°33'0 0.0
2016-May-21 18:31N 54°32' E 018°33'0 0.0
2016-May-21 17:31N 54°32' E 018°33'0 0.0
2016-May-21 16:31N 54°32' E 018°33'0 0.0
2016-May-21 15:31N 54°32' E 018°33'0 0.0
2016-May-21 14:31N 54°32' E 018°33'0 0.0
2016-May-21 13:31N 54°32' E 018°33'0 0.0
2016-May-21 12:31N 54°32' E 018°33'0 0.0
2016-May-21 11:31N 54°32' E 018°33'0 0.0
2016-May-21 10:31N 54°32' E 018°33'0 0.0
2016-May-21 09:31N 54°32' E 018°33'1 1.0
2016-May-21 08:33N 54°32' E 018°34'10 9.6
2016-May-21 07:33N 54°34' E 018°51'1010.0
2016-May-21 06:33N 54°44' E 018°54'1110.8
2016-May-21 05:33N 54°52' E 018°42'1110.9
2016-May-21 04:33N 54°56' E 018°24'9211.1
2016-May-20 20:13N 55°13' E 015°46'811.1
2016-May-20 19:32N 55°14' E 015°33'1111.1
2016-May-20 18:33N 55°16' E 015°14'1111.4
2016-May-20 17:33N 55°20' E 014°55'1010.1
2016-May-20 16:33N 55°21' E 014°38'1110.7
2016-May-20 15:33N 55°13' E 014°25'1010.5
2016-May-20 14:33N 55°11' E 014°07'1110.6
2016-May-20 13:33N 55°11' E 013°49'1110.6
2016-May-20 12:33N 55°12' E 013°30'1111.1
2016-May-20 11:33N 55°13' E 013°11'1111.1
2016-May-20 10:33N 55°15' E 012°52'10 9.6
2016-May-20 09:33N 55°20' E 012°38'10 9.9
2016-May-20 08:33N 55°30' E 012°41'9 9.4
2016-May-20 07:33N 55°40' E 012°41'10 9.7
2016-May-20 06:33N 55°49' E 012°40'10 9.8
2016-May-20 05:33N 55°59' E 012°38'8 8.3
2016-May-20 04:33N 56°07' E 012°32'9 9.4
2016-May-20 03:33N 56°12' E 012°18'1010.5
2016-May-20 02:33N 56°18' E 012°03'1110.8
2016-May-20 01:33N 56°28' E 011°59'1110.6
2016-May-20 00:33N 56°39' E 011°54'1010.4
2016-May-19 23:33N 56°49' E 011°49'1010.3
2016-May-19 22:33N 56°58' E 011°43'1010.3
2016-May-19 21:33N 57°08' E 011°37'1110.9
2016-May-19 20:33N 57°18' E 011°30'1111.1
2016-May-19 19:33N 57°28' E 011°20'1111.1
2016-May-19 18:33N 57°36' E 011°06'1111.0
2016-May-19 17:33N 57°44' E 010°51'1110.6
2016-May-19 16:33N 57°46' E 010°32'1111.3
2016-May-19 15:33N 57°42' E 010°12'158 9.6
2016-May-18 23:06N 55°46' E 006°57'8 8.3
2016-May-18 22:06N 55°39' E 006°49'17 8.3
2016-May-18 20:05N 55°25' E 006°33'87 8.3
2016-May-18 09:33N 54°10' E 005°13'8 8.3
2016-May-18 08:33N 54°03' E 005°07'9 8.4
2016-May-18 07:30N 53°55' E 005°02'9 8.7
2016-May-18 06:31N 53°47' E 004°57'7410.5
2016-May-17 23:29N 52°39' E 004°07'8 8.8
2016-May-17 22:33N 52°32' E 004°12'9 9.2
2016-May-17 21:33N 52°29' E 004°27'6 6.0
2016-May-17 20:33N 52°28' E 004°37'9 8.7
2016-May-17 19:33N 52°25' E 004°50'2 1.6
2016-May-17 18:33N 52°24' E 004°52'0 0.0
2016-May-17 17:33N 52°24' E 004°52'0 0.0
2016-May-17 16:33N 52°24' E 004°52'0 0.0
2016-May-17 15:33N 52°24' E 004°52'0 0.0
2016-May-17 14:33N 52°24' E 004°52'0 0.0
2016-May-17 13:33N 52°24' E 004°52'0 0.0
2016-May-17 12:33N 52°24' E 004°52'0 0.0
2016-May-17 11:33N 52°24' E 004°52'0 0.0
2016-May-17 10:33N 52°24' E 004°52'0 0.3
2016-May-17 09:33N 52°24' E 004°52'0 0.0
2016-May-17 08:33N 52°24' E 004°52'0 0.0
2016-May-17 07:33N 52°24' E 004°52'0 0.0
2016-May-17 06:33N 52°24' E 004°52'0 0.0
2016-May-17 05:33N 52°24' E 004°52'0 0.0
2016-May-17 04:33N 52°24' E 004°52'0 0.0
2016-May-17 03:33N 52°24' E 004°52'0 0.0
2016-May-17 02:33N 52°24' E 004°52'0 0.0
2016-May-17 01:33N 52°24' E 004°52'0 0.0
2016-May-17 00:33N 52°24' E 004°52'0 0.0
2016-May-16 23:33N 52°24' E 004°52'0 0.0
2016-May-16 22:33N 52°24' E 004°52'0 0.0
2016-May-16 21:33N 52°24' E 004°52'0 0.0
2016-May-16 20:33N 52°24' E 004°52'0 0.0
2016-May-16 19:33N 52°24' E 004°52'0 0.0
2016-May-16 18:33N 52°24' E 004°52'0 0.0
2016-May-16 17:33N 52°24' E 004°52'0 0.0
2016-May-16 16:33N 52°24' E 004°52'0 0.0
2016-May-16 15:33N 52°24' E 004°52'0 0.0
2016-May-16 14:33N 52°24' E 004°52'0 0.0
2016-May-16 13:33N 52°24' E 004°52'1 0.5
2016-May-16 12:34N 52°25' E 004°52'1010.0
2016-May-16 11:34N 52°28' E 004°37'5 5.2
2016-May-16 10:34N 52°28' E 004°28'1010.5
2016-May-16 09:33N 52°29' E 004°11'2 1.9
2016-May-16 08:30N 52°27' E 004°09'0 0.0
2016-May-16 07:24N 52°27' E 004°09'0 0.0
2016-May-16 06:33N 52°27' E 004°09'0 0.0
2016-May-16 03:30N 52°27' E 004°09'0 0.0
2016-May-16 02:21N 52°27' E 004°09'0 0.0
2016-May-16 01:24N 52°27' E 004°09'0 0.1
2016-May-16 00:30N 52°27' E 004°09'0 0.0
2016-May-15 23:33N 52°27' E 004°09'0 0.0
2016-May-15 22:33N 52°27' E 004°09'0 0.0
2016-May-15 21:33N 52°27' E 004°09'0 0.0
2016-May-15 20:30N 52°27' E 004°09'0 0.0
2016-May-15 19:33N 52°27' E 004°09'0 0.0
2016-May-15 18:33N 52°27' E 004°09'0 0.0
2016-May-15 17:33N 52°27' E 004°09'0 0.0
2016-May-15 16:33N 52°27' E 004°09'0 0.0
2016-May-15 15:33N 52°27' E 004°09'0 0.0
2016-May-15 14:33N 52°27' E 004°09'0 0.0
2016-May-15 13:33N 52°27' E 004°09'0 0.0
2016-May-15 12:30N 52°27' E 004°09'0 0.0
2016-May-15 11:30N 52°27' E 004°09'0 0.0
2016-May-15 10:33N 52°27' E 004°09'0 0.0
2016-May-15 09:30N 52°27' E 004°09'0 0.0
2016-May-15 08:30N 52°27' E 004°09'0 0.0
2016-May-15 07:30N 52°27' E 004°09'0 0.0
2016-May-15 06:33N 52°27' E 004°09'0 0.0
2016-May-15 05:24N 52°27' E 004°09'0 0.0
2016-May-15 04:30N 52°27' E 004°09'0 0.0
2016-May-15 03:21N 52°27' E 004°08'0 0.0
2016-May-15 02:30N 52°27' E 004°09'0 0.0
2016-May-15 01:33N 52°27' E 004°09'0 0.0
2016-May-15 00:24N 52°27' E 004°09'0 0.0
2016-May-14 23:30N 52°27' E 004°09'  

Dump ship's entire track history